sensor_id;sensor_type;location;lat;lon;timestamp;temperature;humidity
74666;DHT22;71408;50.106;8.694;2023-07-13T00:01:14;29.50;39.10
74666;DHT22;71408;50.106;8.694;2023-07-13T00:03:40;29.50;39.10
74666;DHT22;71408;50.106;8.694;2023-07-13T00:06:06;29.60;39.20
74666;DHT22;71408;50.106;8.694;2023-07-13T00:08:32;29.50;39.10
74666;DHT22;71408;50.106;8.694;2023-07-13T00:10:58;29.50;39.20
74666;DHT22;71408;50.106;8.694;2023-07-13T00:13:24;29.60;39.10
74666;DHT22;71408;50.106;8.694;2023-07-13T00:15:49;29.50;39.10
74666;DHT22;71408;50.106;8.694;2023-07-13T00:18:15;29.50;39.10
74666;DHT22;71408;50.106;8.694;2023-07-13T00:20:40;29.50;39.10
74666;DHT22;71408;50.106;8.694;2023-07-13T00:23:06;29.60;39.30
74666;DHT22;71408;50.106;8.694;2023-07-13T00:25:32;29.50;39.10
74666;DHT22;71408;50.106;8.694;2023-07-13T00:27:57;29.50;39.10
74666;DHT22;71408;50.106;8.694;2023-07-13T00:30:23;29.50;39.10
74666;DHT22;71408;50.106;8.694;2023-07-13T00:32:49;29.50;39.10
74666;DHT22;71408;50.106;8.694;2023-07-13T00:35:15;29.50;39.20
74666;DHT22;71408;50.106;8.694;2023-07-13T00:37:41;29.50;39.20
74666;DHT22;71408;50.106;8.694;2023-07-13T00:40:07;29.50;39.20
74666;DHT22;71408;50.106;8.694;2023-07-13T00:42:33;29.50;39.30
74666;DHT22;71408;50.106;8.694;2023-07-13T00:45:07;29.50;39.30
74666;DHT22;71408;50.106;8.694;2023-07-13T00:47:32;29.50;39.20
74666;DHT22;71408;50.106;8.694;2023-07-13T00:49:58;29.50;39.30
74666;DHT22;71408;50.106;8.694;2023-07-13T00:52:24;29.50;39.20
74666;DHT22;71408;50.106;8.694;2023-07-13T00:54:49;29.50;39.20
74666;DHT22;71408;50.106;8.694;2023-07-13T00:57:17;29.50;39.20
74666;DHT22;71408;50.106;8.694;2023-07-13T00:59:43;29.50;39.20
74666;DHT22;71408;50.106;8.694;2023-07-13T01:02:10;29.50;39.30
74666;DHT22;71408;50.106;8.694;2023-07-13T01:04:36;29.50;39.30
74666;DHT22;71408;50.106;8.694;2023-07-13T01:07:01;29.50;39.30
74666;DHT22;71408;50.106;8.694;2023-07-13T01:09:27;29.50;39.20
74666;DHT22;71408;50.106;8.694;2023-07-13T01:11:53;29.50;39.30
74666;DHT22;71408;50.106;8.694;2023-07-13T01:14:18;29.50;39.30
74666;DHT22;71408;50.106;8.694;2023-07-13T01:16:45;29.50;39.30
74666;DHT22;71408;50.106;8.694;2023-07-13T01:22:11;29.50;39.40
74666;DHT22;71408;50.106;8.694;2023-07-13T01:24:37;29.40;39.20
74666;DHT22;71408;50.106;8.694;2023-07-13T01:27:04;29.40;39.20
74666;DHT22;71408;50.106;8.694;2023-07-13T01:29:32;29.40;39.90
74666;DHT22;71408;50.106;8.694;2023-07-13T01:31:57;29.40;39.30
74666;DHT22;71408;50.106;8.694;2023-07-13T01:34:23;29.40;39.30
74666;DHT22;71408;50.106;8.694;2023-07-13T01:36:48;29.40;39.30
74666;DHT22;71408;50.106;8.694;2023-07-13T01:39:14;29.40;39.20
74666;DHT22;71408;50.106;8.694;2023-07-13T01:41:40;29.40;39.30
74666;DHT22;71408;50.106;8.694;2023-07-13T01:44:06;29.40;39.20
74666;DHT22;71408;50.106;8.694;2023-07-13T01:46:31;29.40;39.30
74666;DHT22;71408;50.106;8.694;2023-07-13T01:48:57;29.40;39.20
74666;DHT22;71408;50.106;8.694;2023-07-13T01:51:22;29.40;39.20
74666;DHT22;71408;50.106;8.694;2023-07-13T01:53:48;29.40;39.10
74666;DHT22;71408;50.106;8.694;2023-07-13T01:56:13;29.40;39.20
74666;DHT22;71408;50.106;8.694;2023-07-13T01:58:39;29.40;39.20
74666;DHT22;71408;50.106;8.694;2023-07-13T02:01:04;29.40;39.10
74666;DHT22;71408;50.106;8.694;2023-07-13T02:03:30;29.40;39.20
74666;DHT22;71408;50.106;8.694;2023-07-13T02:05:56;29.40;39.10
74666;DHT22;71408;50.106;8.694;2023-07-13T02:08:21;29.40;39.10
74666;DHT22;71408;50.106;8.694;2023-07-13T02:10:46;29.40;39.20
74666;DHT22;71408;50.106;8.694;2023-07-13T02:13:12;29.40;39.10
74666;DHT22;71408;50.106;8.694;2023-07-13T02:15:38;29.40;39.10
74666;DHT22;71408;50.106;8.694;2023-07-13T02:18:04;29.40;39.10
74666;DHT22;71408;50.106;8.694;2023-07-13T02:20:29;29.40;39.10
74666;DHT22;71408;50.106;8.694;2023-07-13T02:22:54;29.40;39.10
74666;DHT22;71408;50.106;8.694;2023-07-13T02:25:20;29.30;39.00
74666;DHT22;71408;50.106;8.694;2023-07-13T02:27:45;29.40;39.00
74666;DHT22;71408;50.106;8.694;2023-07-13T02:30:11;29.40;39.00
74666;DHT22;71408;50.106;8.694;2023-07-13T02:32:37;29.40;39.00
74666;DHT22;71408;50.106;8.694;2023-07-13T02:35:02;29.40;39.00
74666;DHT22;71408;50.106;8.694;2023-07-13T02:37:28;29.40;39.00
74666;DHT22;71408;50.106;8.694;2023-07-13T02:39:55;29.30;39.00
74666;DHT22;71408;50.106;8.694;2023-07-13T02:42:20;29.40;39.00
74666;DHT22;71408;50.106;8.694;2023-07-13T02:44:46;29.30;39.00
74666;DHT22;71408;50.106;8.694;2023-07-13T02:47:11;29.30;39.00
74666;DHT22;71408;50.106;8.694;2023-07-13T02:49:38;29.30;39.00
74666;DHT22;71408;50.106;8.694;2023-07-13T02:52:04;29.30;39.00
74666;DHT22;71408;50.106;8.694;2023-07-13T02:54:29;29.30;39.00
74666;DHT22;71408;50.106;8.694;2023-07-13T02:56:55;29.30;39.00
74666;DHT22;71408;50.106;8.694;2023-07-13T02:59:20;29.30;38.90
74666;DHT22;71408;50.106;8.694;2023-07-13T03:01:46;29.30;39.00
74666;DHT22;71408;50.106;8.694;2023-07-13T03:04:11;29.30;38.90
74666;DHT22;71408;50.106;8.694;2023-07-13T03:06:37;29.30;39.60
74666;DHT22;71408;50.106;8.694;2023-07-13T03:09:03;29.30;39.00
74666;DHT22;71408;50.106;8.694;2023-07-13T03:11:29;29.30;39.00
74666;DHT22;71408;50.106;8.694;2023-07-13T03:13:54;29.20;38.90
74666;DHT22;71408;50.106;8.694;2023-07-13T03:16:20;29.20;38.90
74666;DHT22;71408;50.106;8.694;2023-07-13T03:18:46;29.30;38.90
74666;DHT22;71408;50.106;8.694;2023-07-13T03:21:12;29.30;38.90
74666;DHT22;71408;50.106;8.694;2023-07-13T03:23:38;29.20;38.80
74666;DHT22;71408;50.106;8.694;2023-07-13T03:26:05;29.20;38.80
74666;DHT22;71408;50.106;8.694;2023-07-13T03:28:30;29.20;38.90
74666;DHT22;71408;50.106;8.694;2023-07-13T03:31:06;29.20;38.90
74666;DHT22;71408;50.106;8.694;2023-07-13T03:33:32;29.20;38.80
74666;DHT22;71408;50.106;8.694;2023-07-13T03:35:58;29.20;38.80
74666;DHT22;71408;50.106;8.694;2023-07-13T03:38:23;29.20;38.90
74666;DHT22;71408;50.106;8.694;2023-07-13T03:40:49;29.20;38.90
74666;DHT22;71408;50.106;8.694;2023-07-13T03:43:14;29.20;38.80
74666;DHT22;71408;50.106;8.694;2023-07-13T03:45:40;29.20;38.80
74666;DHT22;71408;50.106;8.694;2023-07-13T03:48:05;29.20;38.90
74666;DHT22;71408;50.106;8.694;2023-07-13T03:50:31;29.20;38.80
74666;DHT22;71408;50.106;8.694;2023-07-13T03:53:00;29.20;38.70
74666;DHT22;71408;50.106;8.694;2023-07-13T03:55:25;29.20;38.80
74666;DHT22;71408;50.106;8.694;2023-07-13T03:57:53;29.20;38.70
74666;DHT22;71408;50.106;8.694;2023-07-13T04:00:19;29.20;38.70
74666;DHT22;71408;50.106;8.694;2023-07-13T04:02:44;29.20;38.70
74666;DHT22;71408;50.106;8.694;2023-07-13T04:05:12;29.20;38.70
74666;DHT22;71408;50.106;8.694;2023-07-13T04:07:38;29.20;38.70
74666;DHT22;71408;50.106;8.694;2023-07-13T04:10:03;29.20;38.70
74666;DHT22;71408;50.106;8.694;2023-07-13T04:12:29;29.20;38.70
74666;DHT22;71408;50.106;8.694;2023-07-13T04:14:54;29.20;38.70
74666;DHT22;71408;50.106;8.694;2023-07-13T04:17:20;29.20;38.70
74666;DHT22;71408;50.106;8.694;2023-07-13T04:19:45;29.20;38.60
74666;DHT22;71408;50.106;8.694;2023-07-13T04:22:11;29.20;38.70
74666;DHT22;71408;50.106;8.694;2023-07-13T04:24:36;29.20;38.70
74666;DHT22;71408;50.106;8.694;2023-07-13T04:27:02;29.20;38.70
74666;DHT22;71408;50.106;8.694;2023-07-13T04:29:28;29.20;38.60
74666;DHT22;71408;50.106;8.694;2023-07-13T04:31:53;29.20;38.60
74666;DHT22;71408;50.106;8.694;2023-07-13T04:34:19;29.20;38.60
74666;DHT22;71408;50.106;8.694;2023-07-13T04:36:44;29.20;38.60
74666;DHT22;71408;50.106;8.694;2023-07-13T04:39:10;29.20;38.60
74666;DHT22;71408;50.106;8.694;2023-07-13T04:41:35;29.20;38.60
74666;DHT22;71408;50.106;8.694;2023-07-13T04:44:01;29.20;38.60
74666;DHT22;71408;50.106;8.694;2023-07-13T04:46:28;29.20;38.60
74666;DHT22;71408;50.106;8.694;2023-07-13T04:48:53;29.10;38.50
74666;DHT22;71408;50.106;8.694;2023-07-13T04:51:19;29.10;38.60
74666;DHT22;71408;50.106;8.694;2023-07-13T04:53:45;29.10;38.60
74666;DHT22;71408;50.106;8.694;2023-07-13T04:56:10;29.10;38.50
74666;DHT22;71408;50.106;8.694;2023-07-13T04:58:35;29.10;38.50
74666;DHT22;71408;50.106;8.694;2023-07-13T05:01:04;29.10;38.60
74666;DHT22;71408;50.106;8.694;2023-07-13T05:03:30;29.10;38.50
74666;DHT22;71408;50.106;8.694;2023-07-13T05:05:56;29.10;38.50
74666;DHT22;71408;50.106;8.694;2023-07-13T05:08:22;29.10;38.60
74666;DHT22;71408;50.106;8.694;2023-07-13T05:10:48;29.10;38.50
74666;DHT22;71408;50.106;8.694;2023-07-13T05:13:13;29.10;38.50
74666;DHT22;71408;50.106;8.694;2023-07-13T05:15:38;29.10;38.50
74666;DHT22;71408;50.106;8.694;2023-07-13T05:18:04;29.10;38.50
74666;DHT22;71408;50.106;8.694;2023-07-13T05:20:29;29.10;38.50
74666;DHT22;71408;50.106;8.694;2023-07-13T05:22:55;29.10;38.50
74666;DHT22;71408;50.106;8.694;2023-07-13T05:25:20;29.10;38.40
74666;DHT22;71408;50.106;8.694;2023-07-13T05:27:46;29.10;38.40
74666;DHT22;71408;50.106;8.694;2023-07-13T05:30:12;29.10;38.40
74666;DHT22;71408;50.106;8.694;2023-07-13T05:32:38;29.10;38.40
74666;DHT22;71408;50.106;8.694;2023-07-13T05:35:04;29.10;38.40
74666;DHT22;71408;50.106;8.694;2023-07-13T05:37:29;29.10;38.40
74666;DHT22;71408;50.106;8.694;2023-07-13T05:39:55;29.10;38.40
74666;DHT22;71408;50.106;8.694;2023-07-13T05:42:20;29.10;38.40
74666;DHT22;71408;50.106;8.694;2023-07-13T05:44:46;29.10;38.50
74666;DHT22;71408;50.106;8.694;2023-07-13T05:47:11;29.10;38.40
74666;DHT22;71408;50.106;8.694;2023-07-13T05:49:37;29.10;38.40
74666;DHT22;71408;50.106;8.694;2023-07-13T05:52:02;29.10;38.50
74666;DHT22;71408;50.106;8.694;2023-07-13T05:54:28;29.10;38.50
74666;DHT22;71408;50.106;8.694;2023-07-13T05:56:53;29.10;38.50
74666;DHT22;71408;50.106;8.694;2023-07-13T05:59:19;29.10;38.50
74666;DHT22;71408;50.106;8.694;2023-07-13T06:01:44;29.10;38.50
74666;DHT22;71408;50.106;8.694;2023-07-13T06:04:10;29.10;38.40
74666;DHT22;71408;50.106;8.694;2023-07-13T06:06:35;29.10;38.40
74666;DHT22;71408;50.106;8.694;2023-07-13T06:09:01;29.10;38.40
74666;DHT22;71408;50.106;8.694;2023-07-13T06:11:27;29.10;38.40
74666;DHT22;71408;50.106;8.694;2023-07-13T06:13:52;29.10;38.40
74666;DHT22;71408;50.106;8.694;2023-07-13T06:16:19;29.10;38.40
74666;DHT22;71408;50.106;8.694;2023-07-13T06:18:44;29.10;38.40
74666;DHT22;71408;50.106;8.694;2023-07-13T06:21:11;29.10;38.40
74666;DHT22;71408;50.106;8.694;2023-07-13T06:23:37;29.10;38.40
74666;DHT22;71408;50.106;8.694;2023-07-13T06:26:03;29.10;38.40
74666;DHT22;71408;50.106;8.694;2023-07-13T06:28:28;29.10;38.40
74666;DHT22;71408;50.106;8.694;2023-07-13T06:30:55;29.10;38.40
74666;DHT22;71408;50.106;8.694;2023-07-13T06:33:20;29.10;38.50
74666;DHT22;71408;50.106;8.694;2023-07-13T06:35:46;29.10;38.50
74666;DHT22;71408;50.106;8.694;2023-07-13T06:38:11;29.10;38.40
74666;DHT22;71408;50.106;8.694;2023-07-13T06:40:37;29.10;38.40
74666;DHT22;71408;50.106;8.694;2023-07-13T06:43:02;29.10;38.40
74666;DHT22;71408;50.106;8.694;2023-07-13T06:47:53;29.10;38.40
74666;DHT22;71408;50.106;8.694;2023-07-13T06:50:18;29.10;38.50
74666;DHT22;71408;50.106;8.694;2023-07-13T06:52:44;29.10;38.50
74666;DHT22;71408;50.106;8.694;2023-07-13T06:55:09;29.10;38.40
74666;DHT22;71408;50.106;8.694;2023-07-13T06:57:35;29.10;38.40
74666;DHT22;71408;50.106;8.694;2023-07-13T07:00:00;29.10;38.40
74666;DHT22;71408;50.106;8.694;2023-07-13T07:02:26;29.10;38.30
74666;DHT22;71408;50.106;8.694;2023-07-13T07:04:51;29.10;38.40
74666;DHT22;71408;50.106;8.694;2023-07-13T07:07:17;29.10;38.40
74666;DHT22;71408;50.106;8.694;2023-07-13T07:09:42;29.10;38.40
74666;DHT22;71408;50.106;8.694;2023-07-13T07:12:08;29.10;38.40
74666;DHT22;71408;50.106;8.694;2023-07-13T07:14:33;29.20;38.40
74666;DHT22;71408;50.106;8.694;2023-07-13T07:16:59;29.20;38.30
74666;DHT22;71408;50.106;8.694;2023-07-13T07:19:25;28.90;36.40
74666;DHT22;71408;50.106;8.694;2023-07-13T07:21:50;28.10;36.00
74666;DHT22;71408;50.106;8.694;2023-07-13T07:24:16;27.60;36.00
74666;DHT22;71408;50.106;8.694;2023-07-13T07:26:41;27.20;36.00
74666;DHT22;71408;50.106;8.694;2023-07-13T07:29:07;27.10;36.70
74666;DHT22;71408;50.106;8.694;2023-07-13T07:31:32;26.90;36.70
74666;DHT22;71408;50.106;8.694;2023-07-13T07:33:58;26.90;36.70
74666;DHT22;71408;50.106;8.694;2023-07-13T07:36:23;27.00;36.50
74666;DHT22;71408;50.106;8.694;2023-07-13T07:38:49;27.00;36.70
74666;DHT22;71408;50.106;8.694;2023-07-13T07:41:14;27.00;36.50
74666;DHT22;71408;50.106;8.694;2023-07-13T07:43:42;27.10;36.70
74666;DHT22;71408;50.106;8.694;2023-07-13T07:46:07;27.10;36.40
74666;DHT22;71408;50.106;8.694;2023-07-13T07:48:32;26.90;36.20
74666;DHT22;71408;50.106;8.694;2023-07-13T07:50:58;26.90;35.90
74666;DHT22;71408;50.106;8.694;2023-07-13T07:53:23;26.90;35.70
74666;DHT22;71408;50.106;8.694;2023-07-13T07:55:49;26.80;35.60
74666;DHT22;71408;50.106;8.694;2023-07-13T07:58:15;26.80;35.30
74666;DHT22;71408;50.106;8.694;2023-07-13T08:00:40;26.70;35.20
74666;DHT22;71408;50.106;8.694;2023-07-13T08:03:06;26.70;35.30
74666;DHT22;71408;50.106;8.694;2023-07-13T08:05:31;26.70;35.30
74666;DHT22;71408;50.106;8.694;2023-07-13T08:07:57;26.70;35.10
74666;DHT22;71408;50.106;8.694;2023-07-13T08:10:22;26.70;35.30
74666;DHT22;71408;50.106;8.694;2023-07-13T08:12:47;26.70;35.40
74666;DHT22;71408;50.106;8.694;2023-07-13T08:15:14;26.70;35.70
74666;DHT22;71408;50.106;8.694;2023-07-13T08:17:40;26.70;35.60
74666;DHT22;71408;50.106;8.694;2023-07-13T08:20:06;26.80;35.80
74666;DHT22;71408;50.106;8.694;2023-07-13T08:22:31;26.90;35.70
74666;DHT22;71408;50.106;8.694;2023-07-13T08:24:58;27.00;35.00
74666;DHT22;71408;50.106;8.694;2023-07-13T08:27:24;27.00;34.70
74666;DHT22;71408;50.106;8.694;2023-07-13T08:29:50;26.90;34.70
74666;DHT22;71408;50.106;8.694;2023-07-13T08:32:16;26.90;35.30
74666;DHT22;71408;50.106;8.694;2023-07-13T08:34:42;26.90;35.40
74666;DHT22;71408;50.106;8.694;2023-07-13T08:37:07;26.90;34.90
74666;DHT22;71408;50.106;8.694;2023-07-13T08:39:33;27.00;35.10
74666;DHT22;71408;50.106;8.694;2023-07-13T08:42:01;27.00;34.80
74666;DHT22;71408;50.106;8.694;2023-07-13T08:47:15;27.00;35.00
74666;DHT22;71408;50.106;8.694;2023-07-13T08:49:41;27.00;35.00
74666;DHT22;71408;50.106;8.694;2023-07-13T08:52:12;27.00;34.70
74666;DHT22;71408;50.106;8.694;2023-07-13T08:54:43;27.00;34.70
74666;DHT22;71408;50.106;8.694;2023-07-13T08:57:13;27.00;34.70
74666;DHT22;71408;50.106;8.694;2023-07-13T08:59:39;27.10;34.30
74666;DHT22;71408;50.106;8.694;2023-07-13T09:02:20;27.10;34.50
74666;DHT22;71408;50.106;8.694;2023-07-13T09:04:49;27.10;33.90
74666;DHT22;71408;50.106;8.694;2023-07-13T09:10:15;27.00;33.30
74666;DHT22;71408;50.106;8.694;2023-07-13T09:15:16;27.20;33.30
74666;DHT22;71408;50.106;8.694;2023-07-13T09:17:46;27.20;33.10
74666;DHT22;71408;50.106;8.694;2023-07-13T09:20:30;27.20;33.00
74666;DHT22;71408;50.106;8.694;2023-07-13T09:22:59;27.20;33.00
74666;DHT22;71408;50.106;8.694;2023-07-13T09:25:30;27.20;32.70
74666;DHT22;71408;50.106;8.694;2023-07-13T09:28:00;27.30;32.90
74666;DHT22;71408;50.106;8.694;2023-07-13T09:30:36;27.30;33.00
74666;DHT22;71408;50.106;8.694;2023-07-13T09:33:03;27.30;33.10
74666;DHT22;71408;50.106;8.694;2023-07-13T09:35:29;27.30;33.20
74666;DHT22;71408;50.106;8.694;2023-07-13T09:37:59;27.40;33.10
74666;DHT22;71408;50.106;8.694;2023-07-13T09:40:28;27.40;33.10
74666;DHT22;71408;50.106;8.694;2023-07-13T09:42:58;27.50;33.20
74666;DHT22;71408;50.106;8.694;2023-07-13T09:45:30;27.60;33.30
74666;DHT22;71408;50.106;8.694;2023-07-13T09:48:14;27.60;33.20
74666;DHT22;71408;50.106;8.694;2023-07-13T09:50:40;27.50;32.90
74666;DHT22;71408;50.106;8.694;2023-07-13T09:53:13;27.50;33.00
74666;DHT22;71408;50.106;8.694;2023-07-13T09:55:40;27.60;33.00
74666;DHT22;71408;50.106;8.694;2023-07-13T09:58:13;27.60;32.60
74666;DHT22;71408;50.106;8.694;2023-07-13T10:00:39;27.50;32.40
74666;DHT22;71408;50.106;8.694;2023-07-13T10:03:18;27.40;32.40
74666;DHT22;71408;50.106;8.694;2023-07-13T10:05:46;27.40;32.50
74666;DHT22;71408;50.106;8.694;2023-07-13T10:08:28;27.40;32.40
74666;DHT22;71408;50.106;8.694;2023-07-13T10:11:08;27.40;32.40
74666;DHT22;71408;50.106;8.694;2023-07-13T10:13:39;27.50;32.30
74666;DHT22;71408;50.106;8.694;2023-07-13T10:16:06;27.50;32.10
74666;DHT22;71408;50.106;8.694;2023-07-13T10:18:46;27.40;32.00
74666;DHT22;71408;50.106;8.694;2023-07-13T10:21:15;27.50;32.20
74666;DHT22;71408;50.106;8.694;2023-07-13T10:23:41;27.50;32.40
74666;DHT22;71408;50.106;8.694;2023-07-13T10:26:12;27.50;32.30
74666;DHT22;71408;50.106;8.694;2023-07-13T10:28:40;27.40;32.30
74666;DHT22;71408;50.106;8.694;2023-07-13T10:31:09;27.40;32.20
74666;DHT22;71408;50.106;8.694;2023-07-13T10:33:37;27.40;32.60
74666;DHT22;71408;50.106;8.694;2023-07-13T10:36:13;27.50;32.40
74666;DHT22;71408;50.106;8.694;2023-07-13T10:38:40;27.60;32.40
74666;DHT22;71408;50.106;8.694;2023-07-13T10:41:07;27.50;32.30
74666;DHT22;71408;50.106;8.694;2023-07-13T10:43:36;27.50;32.50
74666;DHT22;71408;50.106;8.694;2023-07-13T10:46:04;27.50;32.20
74666;DHT22;71408;50.106;8.694;2023-07-13T10:48:30;27.50;32.50
74666;DHT22;71408;50.106;8.694;2023-07-13T10:50:59;27.50;33.00
74666;DHT22;71408;50.106;8.694;2023-07-13T10:53:30;27.40;32.20
74666;DHT22;71408;50.106;8.694;2023-07-13T10:55:58;27.40;32.40
74666;DHT22;71408;50.106;8.694;2023-07-13T10:58:29;27.50;32.30
74666;DHT22;71408;50.106;8.694;2023-07-13T11:03:49;27.70;32.40
74666;DHT22;71408;50.106;8.694;2023-07-13T11:06:17;27.60;32.90
74666;DHT22;71408;50.106;8.694;2023-07-13T11:08:55;27.70;32.30
74666;DHT22;71408;50.106;8.694;2023-07-13T11:14:08;27.60;32.10
74666;DHT22;71408;50.106;8.694;2023-07-13T11:16:50;27.70;32.50
74666;DHT22;71408;50.106;8.694;2023-07-13T11:19:25;27.70;32.00
74666;DHT22;71408;50.106;8.694;2023-07-13T11:22:11;27.70;31.90
74666;DHT22;71408;50.106;8.694;2023-07-13T11:27:42;27.70;31.50
74666;DHT22;71408;50.106;8.694;2023-07-13T11:36:00;27.60;31.30
74666;DHT22;71408;50.106;8.694;2023-07-13T11:38:32;27.50;31.40
74666;DHT22;71408;50.106;8.694;2023-07-13T11:41:00;27.50;31.30
74666;DHT22;71408;50.106;8.694;2023-07-13T11:43:28;27.50;31.30
74666;DHT22;71408;50.106;8.694;2023-07-13T11:45:54;27.60;31.30
74666;DHT22;71408;50.106;8.694;2023-07-13T11:48:27;27.60;31.10
74666;DHT22;71408;50.106;8.694;2023-07-13T11:50:54;27.60;30.60
74666;DHT22;71408;50.106;8.694;2023-07-13T11:53:20;27.60;30.60
74666;DHT22;71408;50.106;8.694;2023-07-13T11:55:46;27.60;30.70
74666;DHT22;71408;50.106;8.694;2023-07-13T11:58:14;27.70;30.80
74666;DHT22;71408;50.106;8.694;2023-07-13T12:00:42;27.70;30.60
74666;DHT22;71408;50.106;8.694;2023-07-13T12:03:07;27.70;30.40
74666;DHT22;71408;50.106;8.694;2023-07-13T12:05:34;27.70;30.70
74666;DHT22;71408;50.106;8.694;2023-07-13T12:08:00;27.70;30.60
74666;DHT22;71408;50.106;8.694;2023-07-13T12:10:33;27.70;30.50
74666;DHT22;71408;50.106;8.694;2023-07-13T12:13:00;27.80;30.80
74666;DHT22;71408;50.106;8.694;2023-07-13T12:15:32;27.80;30.60
74666;DHT22;71408;50.106;8.694;2023-07-13T12:17:59;27.80;30.60
74666;DHT22;71408;50.106;8.694;2023-07-13T12:20:25;27.80;30.70
74666;DHT22;71408;50.106;8.694;2023-07-13T12:22:51;27.80;30.30
74666;DHT22;71408;50.106;8.694;2023-07-13T12:25:17;27.80;30.10
74666;DHT22;71408;50.106;8.694;2023-07-13T12:27:46;27.80;30.20
74666;DHT22;71408;50.106;8.694;2023-07-13T12:30:28;27.80;31.00
74666;DHT22;71408;50.106;8.694;2023-07-13T12:33:17;27.80;30.40
74666;DHT22;71408;50.106;8.694;2023-07-13T12:35:44;27.80;30.40
74666;DHT22;71408;50.106;8.694;2023-07-13T12:38:11;27.80;30.50
74666;DHT22;71408;50.106;8.694;2023-07-13T12:40:36;27.90;30.40
74666;DHT22;71408;50.106;8.694;2023-07-13T12:43:02;28.00;30.50
74666;DHT22;71408;50.106;8.694;2023-07-13T12:45:29;28.10;30.40
74666;DHT22;71408;50.106;8.694;2023-07-13T12:47:56;28.00;30.40
74666;DHT22;71408;50.106;8.694;2023-07-13T12:50:30;28.00;30.30
74666;DHT22;71408;50.106;8.694;2023-07-13T12:53:00;28.00;30.50
74666;DHT22;71408;50.106;8.694;2023-07-13T12:55:28;28.00;30.20
74666;DHT22;71408;50.106;8.694;2023-07-13T12:57:58;28.00;30.20
74666;DHT22;71408;50.106;8.694;2023-07-13T13:03:15;28.00;30.60
74666;DHT22;71408;50.106;8.694;2023-07-13T13:05:43;27.90;30.60
74666;DHT22;71408;50.106;8.694;2023-07-13T13:08:11;27.90;30.60
74666;DHT22;71408;50.106;8.694;2023-07-13T13:10:36;27.90;30.80
74666;DHT22;71408;50.106;8.694;2023-07-13T13:13:02;27.90;30.70
74666;DHT22;71408;50.106;8.694;2023-07-13T13:15:28;27.90;30.90
74666;DHT22;71408;50.106;8.694;2023-07-13T13:17:55;27.80;30.80
74666;DHT22;71408;50.106;8.694;2023-07-13T13:20:21;27.80;30.90
74666;DHT22;71408;50.106;8.694;2023-07-13T13:22:47;27.70;30.80
74666;DHT22;71408;50.106;8.694;2023-07-13T13:25:13;27.80;31.10
74666;DHT22;71408;50.106;8.694;2023-07-13T13:27:42;27.80;31.20
74666;DHT22;71408;50.106;8.694;2023-07-13T13:30:15;27.80;31.20
74666;DHT22;71408;50.106;8.694;2023-07-13T13:32:41;27.80;31.10
74666;DHT22;71408;50.106;8.694;2023-07-13T13:35:17;27.90;31.10
74666;DHT22;71408;50.106;8.694;2023-07-13T13:37:43;28.00;31.10
74666;DHT22;71408;50.106;8.694;2023-07-13T13:40:18;27.90;31.00
74666;DHT22;71408;50.106;8.694;2023-07-13T13:42:44;27.90;31.00
74666;DHT22;71408;50.106;8.694;2023-07-13T13:45:10;27.90;30.90
74666;DHT22;71408;50.106;8.694;2023-07-13T13:47:35;27.90;30.80
74666;DHT22;71408;50.106;8.694;2023-07-13T13:50:09;27.90;31.10
74666;DHT22;71408;50.106;8.694;2023-07-13T13:52:35;27.90;30.90
74666;DHT22;71408;50.106;8.694;2023-07-13T13:55:01;27.90;31.00
74666;DHT22;71408;50.106;8.694;2023-07-13T13:57:26;27.90;30.80
74666;DHT22;71408;50.106;8.694;2023-07-13T13:59:52;27.90;31.00
74666;DHT22;71408;50.106;8.694;2023-07-13T14:04:55;27.90;31.00
74666;DHT22;71408;50.106;8.694;2023-07-13T14:07:21;27.90;31.10
74666;DHT22;71408;50.106;8.694;2023-07-13T14:09:47;27.90;31.00
74666;DHT22;71408;50.106;8.694;2023-07-13T14:12:12;27.80;31.50
74666;DHT22;71408;50.106;8.694;2023-07-13T14:14:38;27.80;30.80
74666;DHT22;71408;50.106;8.694;2023-07-13T14:17:04;27.80;31.00
74666;DHT22;71408;50.106;8.694;2023-07-13T14:19:29;27.80;31.00
74666;DHT22;71408;50.106;8.694;2023-07-13T14:21:55;27.80;30.90
74666;DHT22;71408;50.106;8.694;2023-07-13T14:24:20;27.80;31.30
74666;DHT22;71408;50.106;8.694;2023-07-13T14:26:46;27.90;31.40
74666;DHT22;71408;50.106;8.694;2023-07-13T14:29:13;28.00;31.20
74666;DHT22;71408;50.106;8.694;2023-07-13T14:31:40;28.00;31.20
74666;DHT22;71408;50.106;8.694;2023-07-13T14:34:07;28.00;31.00
74666;DHT22;71408;50.106;8.694;2023-07-13T14:36:34;28.10;31.20
74666;DHT22;71408;50.106;8.694;2023-07-13T14:39:11;28.20;31.30
74666;DHT22;71408;50.106;8.694;2023-07-13T14:41:37;28.10;31.30
74666;DHT22;71408;50.106;8.694;2023-07-13T14:44:08;28.10;31.30
74666;DHT22;71408;50.106;8.694;2023-07-13T14:46:33;28.00;31.60
74666;DHT22;71408;50.106;8.694;2023-07-13T14:49:03;28.00;31.70
74666;DHT22;71408;50.106;8.694;2023-07-13T14:51:29;28.00;31.80
74666;DHT22;71408;50.106;8.694;2023-07-13T14:53:55;28.00;31.80
74666;DHT22;71408;50.106;8.694;2023-07-13T14:56:21;28.00;32.00
74666;DHT22;71408;50.106;8.694;2023-07-13T14:58:46;28.00;32.00
74666;DHT22;71408;50.106;8.694;2023-07-13T15:01:12;28.00;32.10
74666;DHT22;71408;50.106;8.694;2023-07-13T15:03:39;28.10;32.00
74666;DHT22;71408;50.106;8.694;2023-07-13T15:06:08;28.00;31.90
74666;DHT22;71408;50.106;8.694;2023-07-13T15:08:35;28.00;31.90
74666;DHT22;71408;50.106;8.694;2023-07-13T15:11:00;28.10;32.00
74666;DHT22;71408;50.106;8.694;2023-07-13T15:13:26;28.00;31.90
74666;DHT22;71408;50.106;8.694;2023-07-13T15:15:53;28.00;32.00
74666;DHT22;71408;50.106;8.694;2023-07-13T15:18:19;28.00;32.20
74666;DHT22;71408;50.106;8.694;2023-07-13T15:20:46;27.90;32.00
74666;DHT22;71408;50.106;8.694;2023-07-13T15:23:13;28.00;32.10
74666;DHT22;71408;50.106;8.694;2023-07-13T15:25:39;28.10;32.00
74666;DHT22;71408;50.106;8.694;2023-07-13T15:28:05;28.10;32.00
74666;DHT22;71408;50.106;8.694;2023-07-13T15:30:32;28.10;32.00
74666;DHT22;71408;50.106;8.694;2023-07-13T15:33:09;28.10;32.00
74666;DHT22;71408;50.106;8.694;2023-07-13T15:35:36;28.10;31.90
74666;DHT22;71408;50.106;8.694;2023-07-13T15:38:01;28.10;32.00
74666;DHT22;71408;50.106;8.694;2023-07-13T15:40:34;28.20;32.00
74666;DHT22;71408;50.106;8.694;2023-07-13T15:43:00;28.20;31.90
74666;DHT22;71408;50.106;8.694;2023-07-13T15:45:25;28.10;31.90
74666;DHT22;71408;50.106;8.694;2023-07-13T15:47:51;28.10;31.90
74666;DHT22;71408;50.106;8.694;2023-07-13T15:50:23;28.20;32.00
74666;DHT22;71408;50.106;8.694;2023-07-13T15:52:52;28.10;31.80
74666;DHT22;71408;50.106;8.694;2023-07-13T15:55:19;28.10;32.00
74666;DHT22;71408;50.106;8.694;2023-07-13T15:57:46;28.10;31.80
74666;DHT22;71408;50.106;8.694;2023-07-13T16:00:14;28.10;31.90
74666;DHT22;71408;50.106;8.694;2023-07-13T16:02:41;28.10;31.70